Weather at Hangzhou Xiaoshan International Airport

Public forecast

Using degrees Celsius for public forecast. Weather courtesy of forecast.io.

Current aviation weather report (METAR) for Hangzhou Xiaoshan International Airport

Retrieved 2020/10/01 03:30 UTC (0 seconds ago):

ZSHC 010330Z 14003MPS 050V210 9999 SCT026 26/17 Q1013 NOSIG

Aviation forecast (TAF) for Hangzhou Xiaoshan International Airport

Retrieved 2020-10-01 00:03 UTC (3 hours ago):

TAF ZSHC 302113Z 0100/0124 07003MPS 3000 BR NSC TX27/0106Z TN19/0121Z